Decoded Metar for CYHE (HOPE in BC, CANADA) (IATA:N/A) | Meteo·Mobile Aviation Weather
aviador You're here:

CYHE Decoded Metar

HOPE in BC, CANADA
Report Time2018-10-18 09:00:00
UTC Time2018-10-18 09:12:34
Flight Rules vfr VFR
Wind110° at 10 kt
W.Decomp.*RWY 07: 9.2 kt HW 3.9 kt RCW
W.Rank110° ranks 1
Current wind is above 110° avg. (8.0)
Visibility9999 m
Phenomena:N/A
Clouds:N/A
Expected CloudBase > 400 ft AGL from Temp-Dew spread
CeilingNone
Temp07°C (ISA -8)
Dew Point06°C (93% RH)
AAT2.5°C
QNH1021 hPa
Density Alt-948 ft
Elevation128 ft
Report Wrong Elevation
Raw Report
CYHE 180900Z AUTO 11010KT 9SM CLR 07/06 A3016 RMK SLP214=

Extra information for CYHE:More info

Metar Taf Metar & Taf Last 4 Metars F.Rules Stats Wind Profile Meteogram Temp Stats Airport Information Weather charts Add Link Nearby VenuesMetar ALERT Operation Metar Decoded Social comments